This is the latest recevied weather packets stored in our database for station/object OK2ZAW-19. If no packets are shown the sender has not sent any weather packets the latest 1 day(s).
| Time | Temp. | Humidity | Pressure | Rain* | Wind** | Luminosity | Snow |
|---|---|---|---|---|---|---|---|
| 1836274670 | 16.11° C | 96% | 1026 hPa | - | 0.89 m/s, 270° | 338 W/m² | - |
| 1836274666 | 16.11° C | 96% | 1026 hPa | - | 0.89 m/s, 270° | 338 W/m² | - |
| 1836274537 | 16.11° C | 97% | 1026 hPa | - | 0.89 m/s, 270° | 337 W/m² | - |
| 1836274354 | 16.11° C | 96% | 1026.1 hPa | - | 0.89 m/s, 270° | 337 W/m² | - |
| 1836274226 | 16.11° C | 97% | 1025.9 hPa | - | 0.89 m/s, 270° | 337 W/m² | - |
| 1836274048 | 16.11° C | 96% | 1026.1 hPa | - | 0.89 m/s, 270° | 337 W/m² | - |
| 1836274044 | 16.11° C | 96% | 1026.1 hPa | - | 0.89 m/s, 270° | 337 W/m² | - |
| 1778019380 | 11.11° C | 10% | - | - | 0.89 m/s, 315° | - | - |
| 1778019069 | 11.11° C | 10% | - | - | 0.89 m/s, 315° | - | - |
| 1778018759 | 11.11° C | 10% | - | - | 0.45 m/s, 315° | - | - |
| 1778018448 | 11.11° C | 10% | - | - | 0.45 m/s, 315° | - | - |
| 1778018138 | 11.11° C | 99% | 1005.8 hPa | - | 0.45 m/s, 315° | 337 W/m² | - |
| 1778017827 | 11.11° C | 98% | 1005.8 hPa | - | 0.45 m/s, 315° | 337 W/m² | - |
| 1778017517 | 11.11° C | 97% | 1005.8 hPa | - | 0.45 m/s, 315° | 337 W/m² | - |
| 1778017207 | 11.67° C | 94% | 1005.7 hPa | - | 0.45 m/s, 315° | 337 W/m² | - |
| 1778016896 | 11.67° C | 95% | 1005.8 hPa | - | 0.45 m/s, 315° | 337 W/m² | - |
| 1778016585 | 11.67° C | 93% | 1005.8 hPa | - | 0.45 m/s, 315° | 337 W/m² | - |
| 1778016275 | 11.67° C | 90% | 1005.8 hPa | - | 0.45 m/s, 315° | 337 W/m² | - |
| 1778015964 | 11.67° C | 88% | 1005.8 hPa | - | 0.45 m/s, 315° | 337 W/m² | - |
| 1778015654 | 11.67° C | 87% | 1005.8 hPa | - | 0.45 m/s, 315° | 337 W/m² | - |
| 1778015033 | 12.22° C | 86% | 1005.9 hPa | - | 0.45 m/s, 315° | 337 W/m² | - |
| 1778014722 | 12.22° C | 86% | 1005.9 hPa | - | 0.89 m/s, 315° | 337 W/m² | - |
| 1778014412 | 12.22° C | 84% | 1005.9 hPa | - | 0.45 m/s, 315° | 337 W/m² | - |
| 1778014101 | 12.22° C | 83% | 1006 hPa | - | 0.89 m/s, 315° | 337 W/m² | - |
| 1778013791 | 12.22° C | 82% | 1006 hPa | - | 0.45 m/s, 315° | 337 W/m² | - |
* Rain since midnight (hover to see other rain measurements)
** Current wind speed in m/s (hover to see current wind gust speed)